sensor_id;sensor_type;location;lat;lon;timestamp;P1;durP1;ratioP1;P2;durP2;ratioP2
3034;SDS011;1527;48.836;9.172;2022-09-09T00:02:03;4.00;;;2.88;;
3034;SDS011;1527;48.836;9.172;2022-09-09T00:04:46;7.65;;;3.25;;
3034;SDS011;1527;48.836;9.172;2022-09-09T00:07:34;7.80;;;3.13;;
3034;SDS011;1527;48.836;9.172;2022-09-09T00:10:13;4.70;;;3.13;;
3034;SDS011;1527;48.836;9.172;2022-09-09T00:12:51;7.43;;;3.10;;
3034;SDS011;1527;48.836;9.172;2022-09-09T00:15:30;3.67;;;2.92;;
3034;SDS011;1527;48.836;9.172;2022-09-09T00:18:10;3.33;;;2.20;;
3034;SDS011;1527;48.836;9.172;2022-09-09T00:20:47;5.57;;;2.40;;
3034;SDS011;1527;48.836;9.172;2022-09-09T00:23:27;5.85;;;2.97;;
3034;SDS011;1527;48.836;9.172;2022-09-09T00:26:01;4.47;;;2.10;;
3034;SDS011;1527;48.836;9.172;2022-09-09T00:28:36;3.00;;;2.05;;
3034;SDS011;1527;48.836;9.172;2022-09-09T00:31:20;3.08;;;1.83;;
3034;SDS011;1527;48.836;9.172;2022-09-09T00:33:55;3.33;;;1.90;;
3034;SDS011;1527;48.836;9.172;2022-09-09T00:36:31;2.65;;;1.63;;
3034;SDS011;1527;48.836;9.172;2022-09-09T00:39:03;2.22;;;2.03;;
3034;SDS011;1527;48.836;9.172;2022-09-09T00:41:36;2.53;;;1.70;;
3034;SDS011;1527;48.836;9.172;2022-09-09T00:44:26;1.90;;;1.55;;
3034;SDS011;1527;48.836;9.172;2022-09-09T00:47:12;2.65;;;1.55;;
3034;SDS011;1527;48.836;9.172;2022-09-09T00:50:00;1.80;;;1.70;;
3034;SDS011;1527;48.836;9.172;2022-09-09T00:52:36;3.38;;;1.80;;
3034;SDS011;1527;48.836;9.172;2022-09-09T00:55:19;3.92;;;1.85;;
3034;SDS011;1527;48.836;9.172;2022-09-09T00:57:56;3.67;;;1.95;;
3034;SDS011;1527;48.836;9.172;2022-09-09T01:00:26;5.00;;;2.10;;
3034;SDS011;1527;48.836;9.172;2022-09-09T01:03:02;2.92;;;1.85;;
3034;SDS011;1527;48.836;9.172;2022-09-09T01:05:49;4.30;;;1.80;;
3034;SDS011;1527;48.836;9.172;2022-09-09T01:08:36;3.45;;;1.88;;
3034;SDS011;1527;48.836;9.172;2022-09-09T01:11:22;3.10;;;1.73;;
3034;SDS011;1527;48.836;9.172;2022-09-09T01:13:58;1.70;;;1.60;;
3034;SDS011;1527;48.836;9.172;2022-09-09T01:16:38;2.20;;;1.70;;
3034;SDS011;1527;48.836;9.172;2022-09-09T01:19:10;3.08;;;1.95;;
3034;SDS011;1527;48.836;9.172;2022-09-09T01:21:50;2.30;;;1.90;;
3034;SDS011;1527;48.836;9.172;2022-09-09T01:24:35;5.55;;;1.90;;
3034;SDS011;1527;48.836;9.172;2022-09-09T01:27:18;6.35;;;2.10;;
3034;SDS011;1527;48.836;9.172;2022-09-09T01:29:49;6.65;;;2.35;;
3034;SDS011;1527;48.836;9.172;2022-09-09T01:32:37;3.13;;;1.60;;
3034;SDS011;1527;48.836;9.172;2022-09-09T01:35:12;10.55;;;2.10;;
3034;SDS011;1527;48.836;9.172;2022-09-09T01:37:59;2.50;;;1.70;;
3034;SDS011;1527;48.836;9.172;2022-09-09T01:40:29;7.38;;;1.80;;
3034;SDS011;1527;48.836;9.172;2022-09-09T01:42:59;3.05;;;1.60;;
3034;SDS011;1527;48.836;9.172;2022-09-09T01:45:29;3.92;;;1.55;;
3034;SDS011;1527;48.836;9.172;2022-09-09T01:47:59;2.50;;;1.75;;
3034;SDS011;1527;48.836;9.172;2022-09-09T01:50:51;3.50;;;2.03;;
3034;SDS011;1527;48.836;9.172;2022-09-09T01:53:21;3.95;;;1.77;;
3034;SDS011;1527;48.836;9.172;2022-09-09T01:55:54;3.78;;;1.67;;
3034;SDS011;1527;48.836;9.172;2022-09-09T01:58:43;2.15;;;1.60;;
3034;SDS011;1527;48.836;9.172;2022-09-09T02:01:30;2.63;;;1.90;;
3034;SDS011;1527;48.836;9.172;2022-09-09T02:04:16;2.35;;;1.70;;
3034;SDS011;1527;48.836;9.172;2022-09-09T02:06:57;7.82;;;2.00;;
3034;SDS011;1527;48.836;9.172;2022-09-09T02:09:29;4.32;;;1.80;;
3034;SDS011;1527;48.836;9.172;2022-09-09T02:12:00;2.53;;;1.90;;
3034;SDS011;1527;48.836;9.172;2022-09-09T02:14:46;1.92;;;1.73;;
3034;SDS011;1527;48.836;9.172;2022-09-09T02:17:21;2.30;;;2.10;;
3034;SDS011;1527;48.836;9.172;2022-09-09T02:20:04;6.05;;;2.00;;
3034;SDS011;1527;48.836;9.172;2022-09-09T02:22:55;3.28;;;1.70;;
3034;SDS011;1527;48.836;9.172;2022-09-09T02:25:26;5.95;;;2.55;;
3034;SDS011;1527;48.836;9.172;2022-09-09T02:28:06;5.80;;;2.28;;
3034;SDS011;1527;48.836;9.172;2022-09-09T02:30:39;2.50;;;2.15;;
3034;SDS011;1527;48.836;9.172;2022-09-09T02:33:11;4.90;;;2.40;;
3034;SDS011;1527;48.836;9.172;2022-09-09T02:35:48;2.92;;;1.75;;
3034;SDS011;1527;48.836;9.172;2022-09-09T02:38:22;2.67;;;1.90;;
3034;SDS011;1527;48.836;9.172;2022-09-09T02:41:02;3.40;;;2.00;;
3034;SDS011;1527;48.836;9.172;2022-09-09T02:43:31;3.50;;;2.45;;
3034;SDS011;1527;48.836;9.172;2022-09-09T02:46:08;2.95;;;1.80;;
3034;SDS011;1527;48.836;9.172;2022-09-09T02:48:58;4.35;;;1.90;;
3034;SDS011;1527;48.836;9.172;2022-09-09T02:51:35;4.07;;;2.10;;
3034;SDS011;1527;48.836;9.172;2022-09-09T02:54:16;1.88;;;1.50;;
3034;SDS011;1527;48.836;9.172;2022-09-09T02:56:55;3.33;;;1.65;;
3034;SDS011;1527;48.836;9.172;2022-09-09T02:59:35;5.28;;;1.63;;
3034;SDS011;1527;48.836;9.172;2022-09-09T03:02:05;3.10;;;1.67;;
3034;SDS011;1527;48.836;9.172;2022-09-09T03:04:35;3.60;;;1.98;;
3034;SDS011;1527;48.836;9.172;2022-09-09T03:07:04;2.67;;;1.50;;
3034;SDS011;1527;48.836;9.172;2022-09-09T03:09:34;3.08;;;2.00;;
3034;SDS011;1527;48.836;9.172;2022-09-09T03:12:03;2.72;;;1.85;;
3034;SDS011;1527;48.836;9.172;2022-09-09T03:14:34;3.20;;;1.80;;
3034;SDS011;1527;48.836;9.172;2022-09-09T03:17:03;2.38;;;2.03;;
3034;SDS011;1527;48.836;9.172;2022-09-09T03:19:39;3.38;;;1.80;;
3034;SDS011;1527;48.836;9.172;2022-09-09T03:22:09;3.00;;;1.90;;
3034;SDS011;1527;48.836;9.172;2022-09-09T03:24:42;3.38;;;2.05;;
3034;SDS011;1527;48.836;9.172;2022-09-09T03:27:11;4.63;;;2.10;;
3034;SDS011;1527;48.836;9.172;2022-09-09T03:29:41;2.25;;;2.05;;
3034;SDS011;1527;48.836;9.172;2022-09-09T03:32:15;2.40;;;1.80;;
3034;SDS011;1527;48.836;9.172;2022-09-09T03:34:45;5.00;;;1.80;;
3034;SDS011;1527;48.836;9.172;2022-09-09T03:37:14;2.65;;;1.73;;
3034;SDS011;1527;48.836;9.172;2022-09-09T03:39:45;3.63;;;2.42;;
3034;SDS011;1527;48.836;9.172;2022-09-09T03:42:16;2.55;;;1.80;;
3034;SDS011;1527;48.836;9.172;2022-09-09T03:44:49;2.90;;;1.60;;
3034;SDS011;1527;48.836;9.172;2022-09-09T03:47:23;1.50;;;1.38;;
3034;SDS011;1527;48.836;9.172;2022-09-09T03:49:57;3.33;;;1.90;;
3034;SDS011;1527;48.836;9.172;2022-09-09T03:52:26;2.35;;;1.70;;
3034;SDS011;1527;48.836;9.172;2022-09-09T03:54:57;4.93;;;1.92;;
3034;SDS011;1527;48.836;9.172;2022-09-09T03:57:26;4.97;;;2.17;;
3034;SDS011;1527;48.836;9.172;2022-09-09T03:59:57;1.92;;;1.80;;
3034;SDS011;1527;48.836;9.172;2022-09-09T04:02:33;5.15;;;2.10;;
3034;SDS011;1527;48.836;9.172;2022-09-09T04:05:02;4.20;;;1.60;;
3034;SDS011;1527;48.836;9.172;2022-09-09T04:07:34;2.40;;;1.60;;
3034;SDS011;1527;48.836;9.172;2022-09-09T04:10:03;3.83;;;1.60;;
3034;SDS011;1527;48.836;9.172;2022-09-09T04:12:35;3.90;;;1.60;;
3034;SDS011;1527;48.836;9.172;2022-09-09T04:15:04;1.67;;;1.40;;
3034;SDS011;1527;48.836;9.172;2022-09-09T04:17:37;2.60;;;1.60;;
3034;SDS011;1527;48.836;9.172;2022-09-09T04:20:06;4.10;;;1.88;;
3034;SDS011;1527;48.836;9.172;2022-09-09T04:22:39;3.67;;;1.83;;
3034;SDS011;1527;48.836;9.172;2022-09-09T04:25:08;3.33;;;1.95;;
3034;SDS011;1527;48.836;9.172;2022-09-09T04:27:38;4.75;;;2.70;;
3034;SDS011;1527;48.836;9.172;2022-09-09T04:30:07;9.40;;;2.30;;
3034;SDS011;1527;48.836;9.172;2022-09-09T04:32:41;4.75;;;2.33;;
3034;SDS011;1527;48.836;9.172;2022-09-09T04:35:10;2.92;;;2.20;;
3034;SDS011;1527;48.836;9.172;2022-09-09T04:37:40;5.25;;;3.58;;
3034;SDS011;1527;48.836;9.172;2022-09-09T04:40:09;5.40;;;2.95;;
3034;SDS011;1527;48.836;9.172;2022-09-09T04:42:38;4.50;;;3.50;;
3034;SDS011;1527;48.836;9.172;2022-09-09T04:45:13;6.57;;;2.70;;
3034;SDS011;1527;48.836;9.172;2022-09-09T04:47:43;6.15;;;2.97;;
3034;SDS011;1527;48.836;9.172;2022-09-09T04:50:13;2.60;;;2.20;;
3034;SDS011;1527;48.836;9.172;2022-09-09T04:52:46;4.03;;;2.72;;
3034;SDS011;1527;48.836;9.172;2022-09-09T04:55:15;5.72;;;2.90;;
3034;SDS011;1527;48.836;9.172;2022-09-09T04:57:45;4.20;;;2.35;;
3034;SDS011;1527;48.836;9.172;2022-09-09T05:00:15;3.00;;;2.50;;
3034;SDS011;1527;48.836;9.172;2022-09-09T05:02:48;3.05;;;2.33;;
3034;SDS011;1527;48.836;9.172;2022-09-09T05:05:17;10.65;;;2.60;;
3034;SDS011;1527;48.836;9.172;2022-09-09T05:07:48;5.53;;;3.10;;
3034;SDS011;1527;48.836;9.172;2022-09-09T05:10:17;6.88;;;2.38;;
3034;SDS011;1527;48.836;9.172;2022-09-09T05:12:51;5.50;;;2.22;;
3034;SDS011;1527;48.836;9.172;2022-09-09T05:15:24;7.22;;;2.58;;
3034;SDS011;1527;48.836;9.172;2022-09-09T05:17:57;11.13;;;2.85;;
3034;SDS011;1527;48.836;9.172;2022-09-09T05:20:29;4.03;;;2.50;;
3034;SDS011;1527;48.836;9.172;2022-09-09T05:22:59;8.40;;;2.60;;
3034;SDS011;1527;48.836;9.172;2022-09-09T05:25:30;2.47;;;2.28;;
3034;SDS011;1527;48.836;9.172;2022-09-09T05:28:00;2.47;;;2.28;;
3034;SDS011;1527;48.836;9.172;2022-09-09T05:30:30;6.15;;;2.60;;
3034;SDS011;1527;48.836;9.172;2022-09-09T05:33:03;2.95;;;2.13;;
3034;SDS011;1527;48.836;9.172;2022-09-09T05:35:33;5.13;;;2.47;;
3034;SDS011;1527;48.836;9.172;2022-09-09T05:38:02;3.80;;;2.78;;
3034;SDS011;1527;48.836;9.172;2022-09-09T05:40:31;3.70;;;2.13;;
3034;SDS011;1527;48.836;9.172;2022-09-09T05:43:00;4.35;;;2.28;;
3034;SDS011;1527;48.836;9.172;2022-09-09T05:45:29;4.32;;;2.28;;
3034;SDS011;1527;48.836;9.172;2022-09-09T05:48:00;4.95;;;2.38;;
3034;SDS011;1527;48.836;9.172;2022-09-09T05:50:31;6.28;;;2.35;;
3034;SDS011;1527;48.836;9.172;2022-09-09T05:53:00;6.72;;;2.25;;
3034;SDS011;1527;48.836;9.172;2022-09-09T05:55:30;8.82;;;2.35;;
3034;SDS011;1527;48.836;9.172;2022-09-09T05:58:00;3.08;;;1.98;;
3034;SDS011;1527;48.836;9.172;2022-09-09T06:00:29;2.88;;;2.30;;
3034;SDS011;1527;48.836;9.172;2022-09-09T06:02:59;9.43;;;2.45;;
3034;SDS011;1527;48.836;9.172;2022-09-09T06:05:30;5.03;;;2.50;;
3034;SDS011;1527;48.836;9.172;2022-09-09T06:08:01;5.47;;;2.50;;
3034;SDS011;1527;48.836;9.172;2022-09-09T06:10:30;4.30;;;2.28;;
3034;SDS011;1527;48.836;9.172;2022-09-09T06:13:01;6.00;;;2.50;;
3034;SDS011;1527;48.836;9.172;2022-09-09T06:15:30;3.60;;;1.92;;
3034;SDS011;1527;48.836;9.172;2022-09-09T06:17:59;2.47;;;2.28;;
3034;SDS011;1527;48.836;9.172;2022-09-09T06:20:28;5.53;;;2.28;;
3034;SDS011;1527;48.836;9.172;2022-09-09T06:22:59;3.88;;;2.30;;
3034;SDS011;1527;48.836;9.172;2022-09-09T06:25:28;4.80;;;2.92;;
3034;SDS011;1527;48.836;9.172;2022-09-09T06:27:57;4.78;;;2.50;;
3034;SDS011;1527;48.836;9.172;2022-09-09T06:30:27;5.20;;;2.60;;
3034;SDS011;1527;48.836;9.172;2022-09-09T06:32:57;8.55;;;2.97;;
3034;SDS011;1527;48.836;9.172;2022-09-09T06:35:27;12.00;;;6.40;;
3034;SDS011;1527;48.836;9.172;2022-09-09T06:37:57;9.13;;;7.25;;
3034;SDS011;1527;48.836;9.172;2022-09-09T06:40:27;10.55;;;3.83;;
3034;SDS011;1527;48.836;9.172;2022-09-09T06:42:59;3.10;;;2.40;;
3034;SDS011;1527;48.836;9.172;2022-09-09T06:45:34;3.75;;;2.35;;
3034;SDS011;1527;48.836;9.172;2022-09-09T06:48:04;3.28;;;1.92;;
3034;SDS011;1527;48.836;9.172;2022-09-09T06:50:36;1.85;;;1.67;;
3034;SDS011;1527;48.836;9.172;2022-09-09T06:53:06;5.65;;;2.47;;
3034;SDS011;1527;48.836;9.172;2022-09-09T06:55:35;2.90;;;2.40;;
3034;SDS011;1527;48.836;9.172;2022-09-09T06:58:07;3.03;;;2.35;;
3034;SDS011;1527;48.836;9.172;2022-09-09T07:00:37;1.95;;;1.80;;
3034;SDS011;1527;48.836;9.172;2022-09-09T07:03:06;4.13;;;2.00;;
3034;SDS011;1527;48.836;9.172;2022-09-09T07:05:39;4.03;;;2.25;;
3034;SDS011;1527;48.836;9.172;2022-09-09T07:08:10;5.32;;;2.10;;
3034;SDS011;1527;48.836;9.172;2022-09-09T07:10:39;2.33;;;2.03;;
3034;SDS011;1527;48.836;9.172;2022-09-09T07:13:09;4.72;;;2.45;;
3034;SDS011;1527;48.836;9.172;2022-09-09T07:15:38;4.70;;;2.15;;
3034;SDS011;1527;48.836;9.172;2022-09-09T07:18:07;5.22;;;1.88;;
3034;SDS011;1527;48.836;9.172;2022-09-09T07:20:37;5.30;;;2.03;;
3034;SDS011;1527;48.836;9.172;2022-09-09T07:23:06;2.08;;;1.85;;
3034;SDS011;1527;48.836;9.172;2022-09-09T07:25:37;5.75;;;2.13;;
3034;SDS011;1527;48.836;9.172;2022-09-09T07:28:13;5.97;;;2.72;;
3034;SDS011;1527;48.836;9.172;2022-09-09T07:30:42;9.43;;;2.25;;
3034;SDS011;1527;48.836;9.172;2022-09-09T07:33:12;3.75;;;1.90;;
3034;SDS011;1527;48.836;9.172;2022-09-09T07:35:41;5.75;;;1.80;;
3034;SDS011;1527;48.836;9.172;2022-09-09T07:38:10;4.68;;;1.92;;
3034;SDS011;1527;48.836;9.172;2022-09-09T07:40:40;3.35;;;2.00;;
3034;SDS011;1527;48.836;9.172;2022-09-09T07:43:10;5.82;;;2.10;;
3034;SDS011;1527;48.836;9.172;2022-09-09T07:45:44;3.13;;;2.50;;
3034;SDS011;1527;48.836;9.172;2022-09-09T07:48:13;6.30;;;2.10;;
3034;SDS011;1527;48.836;9.172;2022-09-09T07:50:42;2.17;;;1.60;;
3034;SDS011;1527;48.836;9.172;2022-09-09T07:53:11;2.85;;;1.73;;
3034;SDS011;1527;48.836;9.172;2022-09-09T07:55:42;4.85;;;1.70;;
3034;SDS011;1527;48.836;9.172;2022-09-09T07:58:12;2.47;;;2.17;;
3034;SDS011;1527;48.836;9.172;2022-09-09T08:00:41;3.58;;;1.95;;
3034;SDS011;1527;48.836;9.172;2022-09-09T08:03:10;4.18;;;2.13;;
3034;SDS011;1527;48.836;9.172;2022-09-09T08:05:40;1.98;;;1.85;;
3034;SDS011;1527;48.836;9.172;2022-09-09T08:08:10;4.40;;;2.08;;
3034;SDS011;1527;48.836;9.172;2022-09-09T08:10:39;2.75;;;1.85;;
3034;SDS011;1527;48.836;9.172;2022-09-09T08:13:10;1.58;;;1.48;;
3034;SDS011;1527;48.836;9.172;2022-09-09T08:15:45;3.42;;;1.75;;
3034;SDS011;1527;48.836;9.172;2022-09-09T08:18:18;3.83;;;1.63;;
3034;SDS011;1527;48.836;9.172;2022-09-09T08:20:47;4.55;;;1.75;;
3034;SDS011;1527;48.836;9.172;2022-09-09T08:23:16;4.97;;;1.55;;
3034;SDS011;1527;48.836;9.172;2022-09-09T08:25:45;2.50;;;1.33;;
3034;SDS011;1527;48.836;9.172;2022-09-09T08:28:17;2.78;;;1.70;;
3034;SDS011;1527;48.836;9.172;2022-09-09T08:30:47;3.47;;;1.50;;
3034;SDS011;1527;48.836;9.172;2022-09-09T08:33:18;5.95;;;2.15;;
3034;SDS011;1527;48.836;9.172;2022-09-09T08:35:49;2.88;;;1.67;;
3034;SDS011;1527;48.836;9.172;2022-09-09T08:38:20;5.63;;;1.80;;
3034;SDS011;1527;48.836;9.172;2022-09-09T08:40:49;2.83;;;1.63;;
3034;SDS011;1527;48.836;9.172;2022-09-09T08:43:24;5.35;;;1.88;;
3034;SDS011;1527;48.836;9.172;2022-09-09T08:45:57;4.93;;;1.60;;
3034;SDS011;1527;48.836;9.172;2022-09-09T08:48:40;2.95;;;1.60;;
3034;SDS011;1527;48.836;9.172;2022-09-09T08:51:20;4.50;;;1.75;;
3034;SDS011;1527;48.836;9.172;2022-09-09T08:53:50;2.63;;;1.73;;
3034;SDS011;1527;48.836;9.172;2022-09-09T08:56:26;4.00;;;1.70;;
3034;SDS011;1527;48.836;9.172;2022-09-09T08:59:00;3.45;;;2.22;;
3034;SDS011;1527;48.836;9.172;2022-09-09T09:01:41;2.08;;;1.60;;
3034;SDS011;1527;48.836;9.172;2022-09-09T09:04:34;3.80;;;2.05;;
3034;SDS011;1527;48.836;9.172;2022-09-09T09:07:16;2.58;;;1.75;;
3034;SDS011;1527;48.836;9.172;2022-09-09T09:10:02;5.47;;;1.67;;
3034;SDS011;1527;48.836;9.172;2022-09-09T09:12:59;1.92;;;1.48;;
3034;SDS011;1527;48.836;9.172;2022-09-09T09:15:35;7.88;;;1.88;;
3034;SDS011;1527;48.836;9.172;2022-09-09T09:18:07;2.78;;;1.52;;
3034;SDS011;1527;48.836;9.172;2022-09-09T09:20:43;4.97;;;1.50;;
3034;SDS011;1527;48.836;9.172;2022-09-09T09:23:21;4.25;;;1.50;;
3034;SDS011;1527;48.836;9.172;2022-09-09T09:25:56;2.83;;;1.92;;
3034;SDS011;1527;48.836;9.172;2022-09-09T09:28:29;2.00;;;1.75;;
3034;SDS011;1527;48.836;9.172;2022-09-09T09:31:10;4.50;;;1.73;;
3034;SDS011;1527;48.836;9.172;2022-09-09T09:33:47;2.80;;;1.73;;
3034;SDS011;1527;48.836;9.172;2022-09-09T09:36:23;3.92;;;2.00;;
3034;SDS011;1527;48.836;9.172;2022-09-09T09:39:03;3.78;;;2.15;;
3034;SDS011;1527;48.836;9.172;2022-09-09T09:41:57;3.90;;;1.65;;
3034;SDS011;1527;48.836;9.172;2022-09-09T09:44:32;3.65;;;1.60;;
3034;SDS011;1527;48.836;9.172;2022-09-09T09:47:13;2.83;;;1.70;;
3034;SDS011;1527;48.836;9.172;2022-09-09T09:49:53;4.05;;;1.33;;
3034;SDS011;1527;48.836;9.172;2022-09-09T09:52:28;2.28;;;1.55;;
3034;SDS011;1527;48.836;9.172;2022-09-09T09:55:02;3.08;;;1.30;;
3034;SDS011;1527;48.836;9.172;2022-09-09T09:57:34;3.78;;;1.38;;
3034;SDS011;1527;48.836;9.172;2022-09-09T10:00:12;2.75;;;1.25;;
3034;SDS011;1527;48.836;9.172;2022-09-09T10:02:52;3.03;;;1.80;;
3034;SDS011;1527;48.836;9.172;2022-09-09T10:05:25;3.85;;;1.60;;
3034;SDS011;1527;48.836;9.172;2022-09-09T10:08:09;1.48;;;1.20;;
3034;SDS011;1527;48.836;9.172;2022-09-09T10:10:46;2.40;;;1.30;;
3034;SDS011;1527;48.836;9.172;2022-09-09T10:13:39;2.38;;;1.30;;
3034;SDS011;1527;48.836;9.172;2022-09-09T10:16:20;2.92;;;1.48;;
3034;SDS011;1527;48.836;9.172;2022-09-09T10:19:03;3.30;;;1.43;;
3034;SDS011;1527;48.836;9.172;2022-09-09T10:24:41;4.35;;;2.10;;
3034;SDS011;1527;48.836;9.172;2022-09-09T10:27:36;2.15;;;1.60;;
3034;SDS011;1527;48.836;9.172;2022-09-09T10:30:14;3.83;;;1.50;;
3034;SDS011;1527;48.836;9.172;2022-09-09T10:32:48;3.17;;;1.35;;
3034;SDS011;1527;48.836;9.172;2022-09-09T10:35:23;3.43;;;1.40;;
3034;SDS011;1527;48.836;9.172;2022-09-09T10:44:06;2.83;;;1.40;;
3034;SDS011;1527;48.836;9.172;2022-09-09T10:47:00;2.60;;;1.67;;
3034;SDS011;1527;48.836;9.172;2022-09-09T10:49:59;5.90;;;1.77;;
3034;SDS011;1527;48.836;9.172;2022-09-09T10:52:50;4.07;;;1.80;;
3034;SDS011;1527;48.836;9.172;2022-09-09T10:55:33;1.60;;;1.50;;
3034;SDS011;1527;48.836;9.172;2022-09-09T10:58:10;2.50;;;1.53;;
3034;SDS011;1527;48.836;9.172;2022-09-09T11:00:46;3.73;;;2.50;;
3034;SDS011;1527;48.836;9.172;2022-09-09T11:03:24;3.10;;;1.67;;
3034;SDS011;1527;48.836;9.172;2022-09-09T11:05:59;3.00;;;1.50;;
3034;SDS011;1527;48.836;9.172;2022-09-09T11:08:35;1.43;;;1.33;;
3034;SDS011;1527;48.836;9.172;2022-09-09T11:11:08;3.90;;;1.60;;
3034;SDS011;1527;48.836;9.172;2022-09-09T11:13:44;2.70;;;1.47;;
3034;SDS011;1527;48.836;9.172;2022-09-09T11:16:20;10.70;;;2.17;;
3034;SDS011;1527;48.836;9.172;2022-09-09T11:18:57;2.50;;;1.50;;
3034;SDS011;1527;48.836;9.172;2022-09-09T11:21:31;5.40;;;1.92;;
3034;SDS011;1527;48.836;9.172;2022-09-09T11:24:10;3.95;;;1.50;;
3034;SDS011;1527;48.836;9.172;2022-09-09T11:26:49;5.75;;;2.25;;
3034;SDS011;1527;48.836;9.172;2022-09-09T11:29:28;11.50;;;2.30;;
3034;SDS011;1527;48.836;9.172;2022-09-09T11:32:44;5.80;;;2.20;;
3034;SDS011;1527;48.836;9.172;2022-09-09T11:35:39;2.38;;;1.40;;
3034;SDS011;1527;48.836;9.172;2022-09-09T11:38:21;5.15;;;2.80;;
3034;SDS011;1527;48.836;9.172;2022-09-09T11:40:57;2.15;;;1.40;;
3034;SDS011;1527;48.836;9.172;2022-09-09T11:43:29;3.50;;;1.30;;
3034;SDS011;1527;48.836;9.172;2022-09-09T11:46:06;1.65;;;1.30;;
3034;SDS011;1527;48.836;9.172;2022-09-09T11:48:37;3.28;;;1.33;;
3034;SDS011;1527;48.836;9.172;2022-09-09T11:51:11;1.55;;;1.35;;
3034;SDS011;1527;48.836;9.172;2022-09-09T11:53:49;1.35;;;1.23;;
3034;SDS011;1527;48.836;9.172;2022-09-09T11:56:26;3.13;;;1.35;;
3034;SDS011;1527;48.836;9.172;2022-09-09T11:58:59;2.85;;;1.10;;
3034;SDS011;1527;48.836;9.172;2022-09-09T12:01:34;1.13;;;1.00;;
3034;SDS011;1527;48.836;9.172;2022-09-09T12:07:01;3.67;;;1.38;;
3034;SDS011;1527;48.836;9.172;2022-09-09T12:09:43;1.23;;;1.13;;
3034;SDS011;1527;48.836;9.172;2022-09-09T12:12:24;1.20;;;1.10;;
3034;SDS011;1527;48.836;9.172;2022-09-09T12:14:59;2.47;;;1.55;;
3034;SDS011;1527;48.836;9.172;2022-09-09T12:18:00;2.40;;;1.17;;
3034;SDS011;1527;48.836;9.172;2022-09-09T12:20:34;1.70;;;1.15;;
3034;SDS011;1527;48.836;9.172;2022-09-09T12:23:11;1.70;;;1.00;;
3034;SDS011;1527;48.836;9.172;2022-09-09T12:25:56;1.63;;;1.20;;
3034;SDS011;1527;48.836;9.172;2022-09-09T12:28:49;5.25;;;1.30;;
3034;SDS011;1527;48.836;9.172;2022-09-09T12:31:28;1.42;;;1.10;;
3034;SDS011;1527;48.836;9.172;2022-09-09T12:34:08;1.65;;;1.20;;
3034;SDS011;1527;48.836;9.172;2022-09-09T12:36:41;2.43;;;1.20;;
3034;SDS011;1527;48.836;9.172;2022-09-09T12:39:21;1.57;;;1.00;;
3034;SDS011;1527;48.836;9.172;2022-09-09T12:41:57;2.15;;;1.35;;
3034;SDS011;1527;48.836;9.172;2022-09-09T12:44:27;1.80;;;1.20;;
3034;SDS011;1527;48.836;9.172;2022-09-09T12:46:57;1.52;;;1.27;;
3034;SDS011;1527;48.836;9.172;2022-09-09T12:49:29;3.10;;;1.30;;
3034;SDS011;1527;48.836;9.172;2022-09-09T12:52:03;2.17;;;1.20;;
3034;SDS011;1527;48.836;9.172;2022-09-09T12:54:37;1.20;;;1.10;;
3034;SDS011;1527;48.836;9.172;2022-09-09T12:57:11;3.10;;;1.20;;
3034;SDS011;1527;48.836;9.172;2022-09-09T12:59:43;1.37;;;1.00;;
3034;SDS011;1527;48.836;9.172;2022-09-09T13:02:20;1.73;;;1.40;;
3034;SDS011;1527;48.836;9.172;2022-09-09T13:04:52;2.63;;;1.10;;
3034;SDS011;1527;48.836;9.172;2022-09-09T13:07:23;3.17;;;1.20;;
3034;SDS011;1527;48.836;9.172;2022-09-09T13:09:53;1.58;;;1.48;;
3034;SDS011;1527;48.836;9.172;2022-09-09T13:12:22;2.03;;;1.13;;
3034;SDS011;1527;48.836;9.172;2022-09-09T13:14:53;3.43;;;1.33;;
3034;SDS011;1527;48.836;9.172;2022-09-09T13:17:24;2.53;;;1.30;;
3034;SDS011;1527;48.836;9.172;2022-09-09T13:19:56;3.93;;;1.40;;
3034;SDS011;1527;48.836;9.172;2022-09-09T13:22:28;1.40;;;1.10;;
3034;SDS011;1527;48.836;9.172;2022-09-09T13:25:05;3.45;;;1.33;;
3034;SDS011;1527;48.836;9.172;2022-09-09T13:27:51;1.45;;;1.20;;
3034;SDS011;1527;48.836;9.172;2022-09-09T13:30:27;2.50;;;1.10;;
3034;SDS011;1527;48.836;9.172;2022-09-09T13:33:03;4.33;;;1.50;;
3034;SDS011;1527;48.836;9.172;2022-09-09T13:35:51;4.95;;;1.60;;
3034;SDS011;1527;48.836;9.172;2022-09-09T13:38:24;2.10;;;1.10;;
3034;SDS011;1527;48.836;9.172;2022-09-09T13:40:54;2.40;;;1.10;;
3034;SDS011;1527;48.836;9.172;2022-09-09T13:43:26;2.90;;;1.60;;
3034;SDS011;1527;48.836;9.172;2022-09-09T13:45:58;4.77;;;1.27;;
3034;SDS011;1527;48.836;9.172;2022-09-09T13:48:30;1.20;;;1.10;;
3034;SDS011;1527;48.836;9.172;2022-09-09T13:51:00;2.47;;;1.10;;
3034;SDS011;1527;48.836;9.172;2022-09-09T13:53:32;3.13;;;1.20;;
3034;SDS011;1527;48.836;9.172;2022-09-09T13:56:03;1.43;;;1.20;;
3034;SDS011;1527;48.836;9.172;2022-09-09T13:58:32;2.30;;;1.30;;
3034;SDS011;1527;48.836;9.172;2022-09-09T14:01:03;3.70;;;1.40;;
3034;SDS011;1527;48.836;9.172;2022-09-09T14:03:33;2.37;;;1.27;;
3034;SDS011;1527;48.836;9.172;2022-09-09T14:06:02;2.00;;;1.30;;
3034;SDS011;1527;48.836;9.172;2022-09-09T14:08:31;2.00;;;1.23;;
3034;SDS011;1527;48.836;9.172;2022-09-09T14:11:04;5.60;;;1.37;;
3034;SDS011;1527;48.836;9.172;2022-09-09T14:13:36;1.63;;;0.97;;
3034;SDS011;1527;48.836;9.172;2022-09-09T14:16:07;2.30;;;1.40;;
3034;SDS011;1527;48.836;9.172;2022-09-09T14:18:36;2.27;;;1.40;;
3034;SDS011;1527;48.836;9.172;2022-09-09T14:21:06;3.10;;;1.60;;
3034;SDS011;1527;48.836;9.172;2022-09-09T14:23:36;3.33;;;1.47;;
3034;SDS011;1527;48.836;9.172;2022-09-09T14:26:05;3.10;;;1.30;;
3034;SDS011;1527;48.836;9.172;2022-09-09T14:28:35;1.30;;;1.20;;
3034;SDS011;1527;48.836;9.172;2022-09-09T14:31:24;2.37;;;1.40;;
3034;SDS011;1527;48.836;9.172;2022-09-09T14:33:53;3.20;;;2.00;;
3034;SDS011;1527;48.836;9.172;2022-09-09T14:36:23;2.17;;;2.00;;
3034;SDS011;1527;48.836;9.172;2022-09-09T14:38:52;3.37;;;1.43;;
3034;SDS011;1527;48.836;9.172;2022-09-09T14:41:22;1.27;;;1.17;;
3034;SDS011;1527;48.836;9.172;2022-09-09T14:43:59;1.23;;;1.13;;
3034;SDS011;1527;48.836;9.172;2022-09-09T14:46:33;1.53;;;1.10;;
3034;SDS011;1527;48.836;9.172;2022-09-09T14:49:02;2.53;;;1.17;;
3034;SDS011;1527;48.836;9.172;2022-09-09T14:51:31;3.10;;;1.17;;
3034;SDS011;1527;48.836;9.172;2022-09-09T14:54:01;1.80;;;1.13;;
3034;SDS011;1527;48.836;9.172;2022-09-09T14:56:32;1.40;;;1.00;;
3034;SDS011;1527;48.836;9.172;2022-09-09T14:59:02;2.40;;;1.20;;
3034;SDS011;1527;48.836;9.172;2022-09-09T15:01:33;1.97;;;1.10;;
3034;SDS011;1527;48.836;9.172;2022-09-09T15:04:04;1.60;;;1.20;;
3034;SDS011;1527;48.836;9.172;2022-09-09T15:06:35;3.07;;;1.70;;
3034;SDS011;1527;48.836;9.172;2022-09-09T15:09:05;2.30;;;1.30;;
3034;SDS011;1527;48.836;9.172;2022-09-09T15:11:35;3.50;;;1.17;;
3034;SDS011;1527;48.836;9.172;2022-09-09T15:14:08;1.30;;;1.20;;
3034;SDS011;1527;48.836;9.172;2022-09-09T15:16:40;1.43;;;1.20;;
3034;SDS011;1527;48.836;9.172;2022-09-09T15:19:09;2.73;;;1.50;;
3034;SDS011;1527;48.836;9.172;2022-09-09T15:21:42;1.77;;;1.10;;
3034;SDS011;1527;48.836;9.172;2022-09-09T15:24:11;1.50;;;1.20;;
3034;SDS011;1527;48.836;9.172;2022-09-09T15:26:40;1.73;;;1.40;;
3034;SDS011;1527;48.836;9.172;2022-09-09T15:29:10;2.43;;;1.60;;
3034;SDS011;1527;48.836;9.172;2022-09-09T15:31:40;1.80;;;1.40;;
3034;SDS011;1527;48.836;9.172;2022-09-09T15:34:09;1.37;;;1.27;;
3034;SDS011;1527;48.836;9.172;2022-09-09T15:36:43;2.50;;;1.83;;
3034;SDS011;1527;48.836;9.172;2022-09-09T15:39:16;5.23;;;2.00;;
3034;SDS011;1527;48.836;9.172;2022-09-09T15:41:49;2.40;;;1.30;;
3034;SDS011;1527;48.836;9.172;2022-09-09T15:44:18;3.03;;;1.40;;
3034;SDS011;1527;48.836;9.172;2022-09-09T15:46:49;4.03;;;1.40;;
3034;SDS011;1527;48.836;9.172;2022-09-09T15:49:21;2.03;;;1.50;;
3034;SDS011;1527;48.836;9.172;2022-09-09T15:51:55;2.03;;;1.20;;
3034;SDS011;1527;48.836;9.172;2022-09-09T15:54:30;3.13;;;1.30;;
3034;SDS011;1527;48.836;9.172;2022-09-09T15:57:02;3.83;;;1.47;;
3034;SDS011;1527;48.836;9.172;2022-09-09T15:59:33;1.40;;;1.20;;
3034;SDS011;1527;48.836;9.172;2022-09-09T16:02:04;3.23;;;1.30;;
3034;SDS011;1527;48.836;9.172;2022-09-09T16:04:33;6.27;;;1.90;;
3034;SDS011;1527;48.836;9.172;2022-09-09T16:07:03;2.60;;;1.80;;
3034;SDS011;1527;48.836;9.172;2022-09-09T16:09:33;2.70;;;1.50;;
3034;SDS011;1527;48.836;9.172;2022-09-09T16:12:03;2.27;;;1.50;;